Mesquite, TX

11:49 AM CDT on April 28, 2015 (GMT -0500)
Lancaster | | Change Station
CLOSE
Current Station
Airport
Location: Lancaster,
Elevation: 502 ft
Nearby Weather Stations

Elev 502 ft 32.58 °N, 96.72 °W | Updated 14 minutes ago

Overcast
Overcast
54 °F
Feels Like 54 °F
N
14
Wind Variable Wind from NNE
Gusts 20 mph

Today
High -- | Low -- °F
--% Chance of Precip.
Yesterday
High -- | Low -- °F
Precip. -- in
6:42 AM 8:05 PM
Waxing Gibbous, 75% visible
Pressure 30.06 in
Visibility 10.0 miles
Clouds Mostly Cloudy 1900 ft
Mostly Cloudy 2500 ft
Overcast 4200 ft
Dew Point 49 °F
Humidity 83%
Rainfall 0.05 in
Snow Depth Not available.
UV 3 out of 12
Pollen 4.00 out of 12
Air Quality Not available.
Flu Activity Local Activity
METAR KLNC 281635Z AUTO 03012G17KT 10SM -DZ BKN019 BKN025 OVC042 13/10 A3006 RMK AO2 T01250096

More Conditions Fewer Conditions

Pressure 30.06 in
Visibility 10.0 miles
Clouds Mostly Cloudy 1900 ft
Mostly Cloudy 2500 ft
Overcast 4200 ft
Dew Point 49 °F
Humidity 83%
Rainfall 0.05 in
Snow Depth Not available.
UV 3 out of 12
Pollen 4.00 out of 12
Air Quality Not available.
Flu Activity Local Activity
METAR KLNC 281635Z AUTO 03012G17KT 10SM -DZ BKN019 BKN025 OVC042 13/10 A3006 RMK AO2 T01250096

More Conditions Fewer Conditions

Nowcast | as of 10:30 am CDT on April 28, 2015

Areas of light to moderate rain will continue mainly affecting areas east of a Gainesville...Fort Worth...Gatesville line through 2 PM. Elsewhere...a few sprinkles will continue under cloudy skies. Rainfall totals with any moderate rainfall over central Texas will average between 1/10 and 1/4 of an inch...while a trace to a few hundreths will occur elsewhere. In addition to the rain...brisk...cloudy and cool conditions will continue with north-northeast winds 10 to 20 mph. Temperatures will creep into the upper 50s and lower 60s this afternoon.

×

10-Day Weather Forecast

Almanac

Astronomy

Apr. 28, 2015 Rise Set
Actual Time
Civil Twilight
Nautical Twilight
Astronomical Twilight
Moon
Length of Visible Light
Length of Day
Tomorrow will be .
, % of the Moon is Illuminated

Today's Extremes

State Highs State Lows

Community

WunderPhotos

Upload Photos

1,817,699 photos uploaded!

WunderBlogs® & News

Nearby

Air Quality

  Air Quality AQ Index Pollutant
Not available.

Snow Depth

Station Depth Elevation

Earthquake Activity

City Distance Mag. Time & Date
Minimum magnitude displayed is 2.5.

Coastal Water Temperatures

Place Temperature

Stations

Nearby Weather Stations

Station Location Temp. Windchill Dew Point Humidity Wind Precip. Elev Updated Type